Time;durP1;ratioP1;P1;durP2;ratioP2;P2;SDS_P1;SDS_P2;PMS_P1;PMS_P2;Temp;Humidity;BMP_temperature;BMP_pressure;BME280_temperature;BME280_humidity;BME280_pressure;Samples;Min_cycle;Max_cycle;Signal;HPM_P1;HPM_P2
2024/01/03 00:00:27;;;;;;;3.72;1.50;;;;;;;16.56;43.40;98092.88;672526;29;1266;-91
2024/01/03 00:00:48;;;;;;;4.00;1.50;;;;;;;16.41;43.36;98110.13;674984;29;1238;-91
2024/01/03 00:01:09;;;;;;;3.30;1.50;;;;;;;16.40;43.31;98085.59;672107;29;1184;-90
2024/01/03 00:01:30;;;;;;;2.78;1.30;;;;;;;16.49;43.26;98051.94;680271;29;1188;-92
2024/01/03 00:01:55;;;;;;;4.88;1.50;;;;;;;16.58;43.27;98093.66;677224;29;1407;-92
2024/01/03 00:02:19;;;;;;;5.43;1.58;;;;;;;16.51;43.25;98079.91;674608;29;1331;-92
2024/01/03 00:02:41;;;;;;;4.97;1.65;;;;;;;16.49;43.38;98120.34;669737;29;1227;-90
2024/01/03 00:03:04;;;;;;;4.40;1.60;;;;;;;16.52;43.48;98083.38;672781;29;1348;-91
2024/01/03 00:03:27;;;;;;;4.80;1.65;;;;;;;16.51;43.59;98079.91;677407;29;1365;-91
2024/01/03 00:03:47;;;;;;;4.45;1.50;;;;;;;16.62;43.49;98083.88;672252;29;1280;-93
2024/01/03 00:04:12;;;;;;;4.95;1.70;;;;;;;16.46;43.44;98115.22;674476;29;1367;-89
2024/01/03 00:04:33;;;;;;;4.32;1.80;;;;;;;16.30;43.52;98085.06;672148;29;1354;-92
2024/01/03 00:04:54;;;;;;;5.30;1.90;;;;;;;16.44;43.51;98084.56;676858;29;1165;-91
2024/01/03 00:05:19;;;;;;;5.60;2.10;;;;;;;16.51;43.56;98072.00;672453;29;1220;-91
2024/01/03 00:06:04;;;;;;;4.95;2.05;;;;;;;16.49;43.80;98081.75;675094;29;1402;-90
2024/01/03 00:06:33;;;;;;;3.85;2.00;;;;;;;16.52;43.91;98089.50;675170;29;1362;-92
2024/01/03 00:06:55;;;;;;;3.67;1.90;;;;;;;16.35;43.69;98077.00;677959;29;1339;-89
2024/01/03 00:07:16;;;;;;;4.20;1.80;;;;;;;16.34;43.83;98079.72;674726;29;1219;-91
2024/01/03 00:07:37;;;;;;;4.30;1.80;;;;;;;16.43;43.81;98068.81;677811;29;851;-90
2024/01/03 00:07:57;;;;;;;4.63;1.70;;;;;;;16.52;43.89;98078.97;673192;29;1315;-90
2024/01/03 00:08:27;;;;;;;3.72;1.52;;;;;;;16.40;43.65;98074.19;672294;29;1195;-92
2024/01/03 00:08:49;;;;;;;7.45;1.60;;;;;;;16.46;43.63;98094.16;677622;29;1251;-91
2024/01/03 00:09:09;;;;;;;7.38;1.58;;;;;;;16.42;43.81;98067.94;672556;29;1284;-90
2024/01/03 00:09:30;;;;;;;8.30;1.70;;;;;;;16.44;43.79;98094.22;677731;29;1351;-91
2024/01/03 00:09:55;;;;;;;4.72;1.88;;;;;;;16.47;43.64;98099.34;680319;29;1249;-90
2024/01/03 00:10:41;;;;;;;4.85;1.95;;;;;;;16.41;43.73;98100.44;680015;29;1274;-90
2024/01/03 00:11:02;;;;;;;3.17;1.70;;;;;;;16.41;43.59;98076.78;672123;29;1410;-90
2024/01/03 00:11:27;;;;;;;2.70;1.50;;;;;;;16.41;43.59;98108.34;672492;29;1280;-89
2024/01/03 00:11:48;;;;;;;4.30;1.60;;;;;;;16.53;43.80;98090.38;669938;29;1450;-90
2024/01/03 00:12:14;;;;;;;3.53;1.70;;;;;;;16.60;43.47;98101.50;675133;29;1278;-91
2024/01/03 00:12:34;;;;;;;5.20;2.05;;;;;;;16.63;43.49;98091.72;677926;29;1183;-92
2024/01/03 00:12:55;;;;;;;4.88;2.20;;;;;;;16.58;43.32;98088.41;675824;29;1310;-92
2024/01/03 00:13:58;;;;;;;4.18;2.05;;;;;;;16.61;43.46;98114.63;675280;29;1373;-92
2024/01/03 00:14:25;;;;;;;6.90;2.30;;;;;;;16.44;44.05;98096.84;677239;29;1400;-90
2024/01/03 00:14:46;;;;;;;6.90;2.25;;;;;;;16.50;43.88;98114.16;676960;29;1166;-90
2024/01/03 00:15:50;;;;;;;5.00;1.98;;;;;;;16.35;43.78;98097.22;675356;29;1129;-89
2024/01/03 00:16:21;;;;;;;4.00;1.90;;;;;;;16.44;43.70;98092.47;669043;29;1216;-91
2024/01/03 00:18:41;;;;;;;3.05;2.22;;;;;;;16.54;43.98;98113.16;708642;27;20530;-91
2024/01/03 00:19:03;;;;;;;13.38;3.20;;;;;;;16.40;44.20;98127.69;700450;28;2115;-87
2024/01/03 00:19:24;;;;;;;13.30;3.28;;;;;;;16.38;44.32;98136.56;694965;28;1410;-87
2024/01/03 00:19:53;;;;;;;7.47;3.00;;;;;;;16.30;44.18;98089.50;694471;28;1483;-90
2024/01/03 00:20:14;;;;;;;8.93;3.00;;;;;;;16.46;44.11;98094.16;693061;28;1270;-91
2024/01/03 00:20:35;;;;;;;6.70;2.80;;;;;;;16.40;44.22;98085.59;690534;28;1244;-90
2024/01/03 00:20:59;;;;;;;7.13;2.92;;;;;;;16.34;43.92;98084.97;693221;28;2031;-91
2024/01/03 00:21:24;;;;;;;10.10;2.90;;;;;;;16.33;43.92;98089.38;701219;28;1257;-92
2024/01/03 00:21:50;;;;;;;10.65;3.10;;;;;;;16.33;43.90;98105.16;695837;28;1401;-92
2024/01/03 00:22:15;;;;;;;10.25;3.05;;;;;;;16.21;43.87;98103.81;692768;28;1493;-91
2024/01/03 00:22:35;;;;;;;5.50;2.85;;;;;;;16.42;43.89;98104.78;690431;28;1285;-92
2024/01/03 00:22:56;;;;;;;3.90;2.60;;;;;;;16.39;43.82;98109.31;693676;28;1550;-92
2024/01/03 00:23:17;;;;;;;4.68;2.83;;;;;;;16.32;43.73;98085.03;698388;28;1175;-92
2024/01/03 00:23:43;;;;;;;6.35;2.88;;;;;;;16.39;43.71;98094.41;693168;28;1192;-92
2024/01/03 00:24:05;;;;;;;6.80;2.65;;;;;;;16.46;43.51;98121.31;695380;28;1469;-92
2024/01/03 00:24:25;;;;;;;7.80;2.90;;;;;;;16.38;43.74;98100.59;695948;28;1439;-91
2024/01/03 00:24:48;;;;;;;6.05;2.92;;;;;;;16.37;43.71;98093.63;693208;28;1129;-91
2024/01/03 00:26:01;;;;;;;6.22;2.95;;;;;;;16.33;43.81;98113.06;693013;28;1866;-91
2024/01/03 00:26:29;;;;;;;7.82;2.67;;;;;;;16.24;43.68;98089.69;693130;28;1271;-91
2024/01/03 00:27:30;;;;;;;5.15;1.73;;;;;;;16.39;43.65;98128.63;690472;28;1329;-93
2024/01/03 00:27:50;;;;;;;8.30;1.98;;;;;;;16.27;43.48;98158.88;695917;28;1320;-91
2024/01/03 00:28:11;;;;;;;7.07;1.75;;;;;;;16.23;43.53;98101.16;695805;28;1279;-92
2024/01/03 00:28:33;;;;;;;7.30;1.70;;;;;;;16.39;43.21;98118.09;698472;28;1161;-93
2024/01/03 00:28:56;;;;;;;5.18;1.80;;;;;;;16.41;43.37;98116.25;697720;28;1606;-93
2024/01/03 00:29:22;;;;;;;5.80;1.90;;;;;;;16.41;43.04;98118.88;695559;28;1059;-93
2024/01/03 00:29:52;;;;;;;5.72;2.00;;;;;;;16.34;43.02;98119.19;693301;28;985;-93
2024/01/03 00:32:07;;;;;;;7.15;2.00;;;;;;;16.30;42.85;98105.28;702389;28;1558;-90
2024/01/03 00:32:47;;;;;;;10.10;1.92;;;;;;;16.25;43.03;98136.16;698707;28;699;-88
2024/01/03 00:33:15;;;;;;;8.30;1.70;;;;;;;16.16;42.87;98217.13;695753;28;1301;-88
2024/01/03 00:33:40;;;;;;;4.03;1.63;;;;;;;16.06;43.30;98075.47;692791;28;1223;-90
2024/01/03 00:34:03;;;;;;;4.00;1.75;;;;;;;16.14;43.35;98133.91;689853;28;1464;-91
2024/01/03 00:34:33;;;;;;;4.45;1.58;;;;;;;16.33;43.10;98130.63;690458;28;1160;-91
2024/01/03 00:34:57;;;;;;;6.50;1.70;;;;;;;16.21;42.90;98139.81;693212;28;1599;-87
2024/01/03 00:35:18;;;;;;;6.93;1.83;;;;;;;16.22;42.83;98108.16;691814;28;1252;-88
2024/01/03 00:42:28;;;;;;;4.20;1.70;;;;;;;16.61;42.50;98135.69;704628;28;988;-92
2024/01/03 00:43:07;;;;;;;5.07;1.70;;;;;;;16.58;42.62;98170.00;700498;28;1526;-91
2024/01/03 00:43:27;;;;;;;4.10;1.80;;;;;;;16.49;42.63;98136.16;692894;28;1456;-91
2024/01/03 00:45:14;;;;;;;4.05;1.70;;;;;;;16.31;42.92;98141.22;690094;28;1280;-89
2024/01/03 00:45:34;;;;;;;4.57;1.80;;;;;;;16.26;42.83;98164.19;690969;28;1212;-88
2024/01/03 00:45:56;;;;;;;4.83;1.73;;;;;;;16.18;43.03;98164.47;697900;28;1704;-92
2024/01/03 00:46:16;;;;;;;4.22;1.52;;;;;;;16.13;43.02;98188.31;692976;28;1427;-89
2024/01/03 00:46:37;;;;;;;3.60;1.40;;;;;;;16.10;42.99;98133.16;695891;28;1183;-90
2024/01/03 00:46:58;;;;;;;4.83;1.60;;;;;;;16.22;42.94;98131.00;693859;28;1607;-91
2024/01/03 00:47:22;;;;;;;4.25;1.80;;;;;;;16.23;42.80;98136.19;695569;28;1121;-90
2024/01/03 00:47:42;;;;;;;5.40;1.90;;;;;;;16.27;43.04;98131.69;693149;28;1301;-89
2024/01/03 00:48:03;;;;;;;5.30;2.00;;;;;;;16.15;42.60;98110.19;696879;28;1336;-89
2024/01/03 00:48:24;;;;;;;6.05;2.10;;;;;;;16.20;42.78;98138.06;698515;28;1289;-89
2024/01/03 00:48:45;;;;;;;5.57;2.10;;;;;;;16.23;42.96;98140.59;695882;28;1148;-90
2024/01/03 00:49:05;;;;;;;7.60;1.98;;;;;;;16.27;43.09;98148.34;690735;28;1692;-91
2024/01/03 00:49:26;;;;;;;6.50;1.90;;;;;;;16.24;42.80;98131.78;690297;28;1309;-92
2024/01/03 00:49:48;;;;;;;7.07;1.83;;;;;;;16.40;42.91;98159.28;692349;28;1246;-92
2024/01/03 00:50:09;;;;;;;5.20;1.92;;;;;;;16.35;42.77;98139.31;691952;28;1528;-90
2024/01/03 00:50:29;;;;;;;6.80;1.73;;;;;;;16.36;42.67;98149.78;693144;28;818;-89
2024/01/03 00:50:50;;;;;;;6.40;1.52;;;;;;;16.25;43.16;98144.94;690225;28;1194;-91
2024/01/03 00:51:11;;;;;;;8.50;1.37;;;;;;;16.19;42.89;98139.88;695279;28;1260;-89
2024/01/03 00:51:31;;;;;;;8.48;1.58;;;;;;;16.23;43.22;98166.91;692381;28;1732;-88
2024/01/03 00:51:53;;;;;;;7.60;1.67;;;;;;;16.19;43.10;98160.91;693707;28;1293;-86
2024/01/03 00:52:15;;;;;;;4.45;1.63;;;;;;;16.17;43.30;98174.09;692579;28;1492;-90
2024/01/03 00:52:36;;;;;;;3.42;1.50;;;;;;;16.23;42.86;98154.59;690221;28;1212;-93
2024/01/03 00:52:56;;;;;;;2.75;1.40;;;;;;;16.13;42.97;98138.31;690143;28;1631;-91
2024/01/03 00:53:17;;;;;;;6.30;1.40;;;;;;;16.11;43.34;98170.84;692916;28;1150;-89
2024/01/03 00:53:38;;;;;;;7.95;1.50;;;;;;;16.07;43.28;98156.09;695680;28;1282;-88
2024/01/03 00:53:59;;;;;;;8.20;1.65;;;;;;;15.95;43.34;98128.47;695040;28;1595;-88
2024/01/03 00:54:21;;;;;;;5.32;1.88;;;;;;;15.85;43.64;98135.84;692509;28;1150;-90
2024/01/03 00:54:44;;;;;;;4.32;1.85;;;;;;;16.05;43.46;98164.06;692684;28;1026;-90
2024/01/03 00:55:06;;;;;;;3.80;1.60;;;;;;;16.09;43.32;98141.13;693746;28;1479;-92
2024/01/03 00:55:26;;;;;;;3.75;1.67;;;;;;;15.97;43.56;98166.94;687802;28;1291;-87
2024/01/03 00:55:47;;;;;;;4.97;1.83;;;;;;;15.86;44.01;98132.31;690239;28;1213;-88
2024/01/03 00:56:08;;;;;;;7.60;2.20;;;;;;;15.85;43.99;98139.31;694253;28;1571;-89
2024/01/03 00:56:29;;;;;;;9.30;2.15;;;;;;;15.81;44.11;98148.25;698429;28;1262;-90
2024/01/03 00:56:50;;;;;;;6.97;2.00;;;;;;;15.84;43.88;98140.25;698304;28;1910;-90
2024/01/03 00:57:12;;;;;;;6.78;1.90;;;;;;;15.97;43.73;98142.44;695422;28;1516;-91
2024/01/03 00:57:32;;;;;;;9.10;1.90;;;;;;;15.89;44.02;98126.91;695497;28;1626;-91
2024/01/03 00:57:55;;;;;;;10.52;1.92;;;;;;;15.85;44.08;98170.03;695208;28;1865;-88
2024/01/03 00:58:16;;;;;;;12.40;2.10;;;;;;;15.96;43.76;98148.59;690322;28;1228;-91
2024/01/03 00:58:36;;;;;;;8.53;1.90;;;;;;;15.95;44.02;98160.03;691337;28;1606;-89
2024/01/03 00:58:57;;;;;;;5.53;1.73;;;;;;;15.89;43.93;98158.47;693153;28;1576;-90
2024/01/03 00:59:18;;;;;;;5.30;1.95;;;;;;;15.83;44.11;98167.44;692971;28;1265;-90
2024/01/03 00:59:39;;;;;;;5.65;1.90;;;;;;;15.84;44.25;98148.13;688820;28;1648;-88
2024/01/03 01:00:00;;;;;;;5.93;1.95;;;;;;;15.83;44.23;98159.56;690972;28;1450;-89
2024/01/03 01:00:21;;;;;;;4.90;1.80;;;;;;;15.74;44.91;98160.72;692830;28;1475;-88
2024/01/03 01:00:42;;;;;;;5.38;2.20;;;;;;;15.73;44.72;98158.19;695704;28;1190;-90
2024/01/03 01:01:02;;;;;;;5.10;2.07;;;;;;;15.62;44.81;98148.03;695017;28;1835;-90
2024/01/03 01:01:23;;;;;;;5.17;2.10;;;;;;;15.67;45.06;98161.84;690363;28;1624;-91
2024/01/03 01:01:44;;;;;;;4.68;1.90;;;;;;;15.61;45.27;98141.06;694290;28;1650;-89
2024/01/03 01:02:06;;;;;;;3.97;1.90;;;;;;;15.66;45.20;98151.41;692679;28;1471;-91
2024/01/03 01:02:26;;;;;;;5.30;1.98;;;;;;;15.75;45.03;98161.59;692998;28;1325;-90
2024/01/03 01:02:47;;;;;;;5.53;1.87;;;;;;;15.63;45.16;98142.69;695548;28;1574;-91
2024/01/03 01:03:08;;;;;;;7.55;1.90;;;;;;;15.68;45.15;98154.84;698204;28;1522;-90
2024/01/03 01:03:29;;;;;;;6.40;1.75;;;;;;;15.66;45.38;98135.66;695729;28;1418;-91
2024/01/03 01:03:50;;;;;;;7.27;1.93;;;;;;;15.75;45.01;98169.50;695209;28;1254;-88
2024/01/03 01:04:13;;;;;;;8.40;2.10;;;;;;;15.69;45.19;98169.69;700406;28;1451;-90
2024/01/03 01:04:34;;;;;;;7.70;2.10;;;;;;;15.77;45.21;98154.50;698422;28;1352;-92
2024/01/03 01:04:55;;;;;;;5.63;2.08;;;;;;;15.79;45.03;98172.88;695357;28;1805;-90
2024/01/03 01:05:16;;;;;;;7.75;2.17;;;;;;;15.79;44.94;98157.94;694939;28;1540;-90
2024/01/03 01:05:37;;;;;;;9.10;2.20;;;;;;;15.77;45.01;98191.31;695756;28;1184;-90
2024/01/03 01:05:58;;;;;;;7.90;2.00;;;;;;;15.71;45.79;98171.38;696003;28;1602;-90
2024/01/03 01:06:19;;;;;;;4.78;2.00;;;;;;;15.70;44.95;98169.66;698342;28;1652;-90
2024/01/03 01:06:41;;;;;;;3.38;1.73;;;;;;;15.62;45.19;98166.44;692875;28;1393;-90
2024/01/03 01:07:02;;;;;;;4.13;1.92;;;;;;;15.62;45.49;98176.94;695557;28;1531;-88
2024/01/03 01:07:23;;;;;;;5.43;2.07;;;;;;;15.56;45.19;98185.88;695796;28;1247;-90
2024/01/03 01:07:44;;;;;;;5.25;1.98;;;;;;;15.44;45.67;98209.97;695599;28;1245;-88
2024/01/03 01:08:05;;;;;;;5.28;1.90;;;;;;;15.19;46.67;98163.44;698195;28;1533;-87
2024/01/03 01:08:26;;;;;;;7.28;1.75;;;;;;;15.09;47.25;98183.91;698557;28;1250;-88
2024/01/03 01:08:46;;;;;;;7.85;2.03;;;;;;;14.89;47.76;98146.00;701057;28;1308;-89
2024/01/03 01:09:08;;;;;;;8.10;2.17;;;;;;;14.76;48.35;98192.78;697023;28;1521;-89
2024/01/03 01:09:29;;;;;;;5.38;2.42;;;;;;;14.86;47.87;98174.97;701238;28;977;-92
2024/01/03 01:09:49;;;;;;;5.38;2.22;;;;;;;14.82;48.12;98165.50;698543;28;1244;-90
2024/01/03 01:10:13;;;;;;;6.88;2.30;;;;;;;14.90;48.23;98178.38;692622;28;2026;-92
2024/01/03 01:10:34;;;;;;;6.47;1.95;;;;;;;14.76;48.21;98226.91;690079;28;1305;-90
2024/01/03 01:10:54;;;;;;;6.80;1.80;;;;;;;14.71;48.13;98170.22;687607;28;1212;-91
2024/01/03 01:11:15;;;;;;;5.43;1.90;;;;;;;14.75;48.35;98180.56;692870;28;1300;-90
2024/01/03 01:11:36;;;;;;;6.57;1.85;;;;;;;14.73;47.99;98164.00;692924;28;1261;-91
2024/01/03 01:11:57;;;;;;;5.50;1.90;;;;;;;14.74;48.33;98170.13;695745;28;1579;-91
2024/01/03 01:12:18;;;;;;;6.97;1.65;;;;;;;14.71;48.48;98168.47;692923;28;1325;-90
2024/01/03 01:12:39;;;;;;;5.30;1.80;;;;;;;14.80;48.18;98178.66;690641;28;1173;-88
2024/01/03 01:13:04;;;;;;;5.93;1.70;;;;;;;14.63;48.93;98146.84;693023;28;1506;-89
2024/01/03 01:13:24;;;;;;;4.53;1.70;;;;;;;14.77;48.55;98181.38;696122;28;1163;-90
2024/01/03 01:13:45;;;;;;;4.90;1.80;;;;;;;14.71;48.53;98168.47;690056;28;1247;-89
2024/01/03 01:14:06;;;;;;;4.00;1.80;;;;;;;14.76;48.47;98170.94;693974;28;1729;-91
2024/01/03 01:14:26;;;;;;;5.80;1.70;;;;;;;14.90;47.84;98199.38;698464;28;1280;-88
2024/01/03 01:14:47;;;;;;;5.88;1.70;;;;;;;14.99;48.05;98178.06;693112;28;1305;-90
2024/01/03 01:15:08;;;;;;;10.18;1.80;;;;;;;14.78;48.61;98179.63;695349;28;1434;-91
2024/01/03 01:15:29;;;;;;;8.67;1.90;;;;;;;14.87;48.40;98175.84;692828;28;1301;-90
2024/01/03 01:15:50;;;;;;;7.32;1.70;;;;;;;14.80;48.78;98173.41;690502;28;1224;-90
2024/01/03 01:16:10;;;;;;;3.92;1.83;;;;;;;14.94;48.26;98165.09;694036;28;1410;-89
2024/01/03 01:16:31;;;;;;;6.17;1.93;;;;;;;14.78;48.79;98169.13;692863;28;1161;-87
2024/01/03 01:16:52;;;;;;;5.90;2.00;;;;;;;14.82;48.83;98160.25;695587;28;1965;-87
2024/01/03 01:17:12;;;;;;;6.03;1.92;;;;;;;14.85;48.72;98181.16;692913;28;1175;-90
2024/01/03 01:17:33;;;;;;;6.78;2.00;;;;;;;14.92;48.41;98181.78;693052;28;1347;-89
2024/01/03 01:17:54;;;;;;;8.63;1.98;;;;;;;15.05;48.31;98204.16;690283;28;1085;-90
2024/01/03 01:18:15;;;;;;;9.40;1.90;;;;;;;14.97;48.63;98190.41;695246;28;1584;-89
2024/01/03 01:18:38;;;;;;;7.83;2.07;;;;;;;15.03;48.16;98169.22;693271;28;1507;-90
2024/01/03 01:18:59;;;;;;;6.90;2.10;;;;;;;15.04;48.14;98165.66;692836;28;1611;-92
2024/01/03 01:19:20;;;;;;;6.50;2.10;;;;;;;15.04;48.25;98168.28;690162;28;1243;-91
2024/01/03 01:19:40;;;;;;;4.95;1.80;;;;;;;15.07;48.04;98155.06;693194;28;1261;-91
2024/01/03 01:20:01;;;;;;;9.30;2.10;;;;;;;15.09;48.36;98194.41;694324;28;1471;-90
2024/01/03 01:20:22;;;;;;;9.48;2.00;;;;;;;14.94;48.38;98169.50;695443;28;1362;-90
2024/01/03 01:20:42;;;;;;;8.20;1.97;;;;;;;14.94;48.24;98180.00;695555;28;1241;-89
2024/01/03 01:21:03;;;;;;;5.70;1.90;;;;;;;15.04;48.40;98176.16;694508;28;1818;-91
2024/01/03 01:21:24;;;;;;;6.28;2.00;;;;;;;15.13;48.07;98179.41;690961;28;1264;-91
2024/01/03 01:21:45;;;;;;;8.80;1.90;;;;;;;15.06;48.14;98163.84;698354;28;1212;-92
2024/01/03 01:22:05;;;;;;;9.97;1.90;;;;;;;14.98;48.46;98179.00;691710;28;1532;-90
2024/01/03 01:22:26;;;;;;;11.15;2.42;;;;;;;14.96;48.43;98183.44;690118;28;1191;-88
2024/01/03 01:22:47;;;;;;;8.07;2.60;;;;;;;15.01;48.45;98176.25;695832;28;1260;-90
2024/01/03 01:23:08;;;;;;;8.00;2.60;;;;;;;15.14;48.07;98170.63;695310;28;1877;-90
2024/01/03 01:23:28;;;;;;;5.63;1.90;;;;;;;15.07;48.25;98172.59;692857;28;1284;-90
2024/01/03 01:23:49;;;;;;;5.23;1.73;;;;;;;15.08;48.52;98190.06;697997;28;1155;-90
2024/01/03 01:24:09;;;;;;;4.05;1.75;;;;;;;14.96;48.63;98167.69;692066;28;1319;-90
2024/01/03 01:24:30;;;;;;;4.05;1.90;;;;;;;14.90;48.27;98199.38;691267;28;1649;-89
2024/01/03 01:24:51;;;;;;;4.90;1.80;;;;;;;14.90;48.67;98192.38;690304;28;1259;-88
2024/01/03 01:25:12;;;;;;;5.32;1.85;;;;;;;14.94;48.54;98175.59;692546;28;1538;-90
2024/01/03 01:25:32;;;;;;;5.70;1.95;;;;;;;14.89;48.46;98193.25;692871;28;1346;-90
2024/01/03 01:25:53;;;;;;;3.95;2.00;;;;;;;15.01;48.46;98194.63;690281;28;1217;-89
2024/01/03 01:26:14;;;;;;;4.10;1.90;;;;;;;14.92;48.36;98163.41;694694;28;1677;-89
2024/01/03 01:26:36;;;;;;;3.00;1.60;;;;;;;14.89;48.33;98185.38;693627;28;1274;-91
2024/01/03 01:26:56;;;;;;;3.60;1.80;;;;;;;14.93;48.32;98180.88;692921;28;1593;-88
2024/01/03 01:27:17;;;;;;;2.90;1.58;;;;;;;15.01;48.17;98170.16;696187;28;1185;-92
2024/01/03 01:27:38;;;;;;;2.85;1.48;;;;;;;15.05;48.26;98161.25;693012;28;1172;-90
2024/01/03 01:27:59;;;;;;;6.00;1.60;;;;;;;14.92;48.07;98189.69;690163;28;1576;-89
2024/01/03 01:28:19;;;;;;;6.30;1.63;;;;;;;14.89;48.48;98187.16;688389;28;1268;-88
2024/01/03 01:28:40;;;;;;;6.55;2.00;;;;;;;14.89;48.68;98180.13;694292;28;1647;-90
2024/01/03 01:29:01;;;;;;;4.30;2.08;;;;;;;14.88;48.36;98177.56;694921;28;1663;-90
2024/01/03 01:29:21;;;;;;;5.83;2.20;;;;;;;14.84;48.56;98174.19;690824;28;1215;-91
2024/01/03 01:29:42;;;;;;;6.75;2.30;;;;;;;14.76;48.56;98181.44;692622;28;1336;-88
2024/01/03 01:30:03;;;;;;;6.78;2.40;;;;;;;14.83;48.46;98168.97;692919;28;1579;-90
2024/01/03 01:30:24;;;;;;;8.50;2.20;;;;;;;14.98;48.40;98175.53;690811;28;1215;-90
2024/01/03 01:30:44;;;;;;;7.15;1.77;;;;;;;15.04;48.21;98183.19;688479;28;1263;-88
2024/01/03 01:31:05;;;;;;;7.03;1.80;;;;;;;15.03;48.14;98178.84;690908;28;1284;-90
2024/01/03 01:31:26;;;;;;;4.85;1.95;;;;;;;14.96;48.22;98175.56;691179;28;839;-90
2024/01/03 01:31:47;;;;;;;5.50;2.05;;;;;;;14.95;48.42;98176.47;696569;28;1185;-89
2024/01/03 01:32:08;;;;;;;6.95;1.98;;;;;;;14.99;48.25;98177.22;689875;28;1751;-89
2024/01/03 01:32:28;;;;;;;9.10;1.80;;;;;;;15.05;48.19;98187.50;693701;28;1157;-91
2024/01/03 01:32:50;;;;;;;8.88;1.70;;;;;;;14.99;48.33;98188.56;693851;28;1189;-90
2024/01/03 01:33:11;;;;;;;7.57;1.70;;;;;;;15.03;48.40;98174.47;693538;28;1465;-90
2024/01/03 01:33:31;;;;;;;5.40;1.95;;;;;;;15.04;48.04;98160.41;692893;28;1189;-90
2024/01/03 01:33:52;;;;;;;6.15;2.15;;;;;;;15.01;48.27;98175.41;696456;28;1156;-88
2024/01/03 01:34:12;;;;;;;7.80;2.50;;;;;;;15.10;48.16;98183.00;690789;28;1496;-89
2024/01/03 01:34:33;;;;;;;10.43;2.50;;;;;;;15.08;48.12;98171.69;696449;28;1300;-90
2024/01/03 01:34:54;;;;;;;9.60;2.35;;;;;;;15.16;47.86;98171.41;693795;28;1204;-90
2024/01/03 01:35:15;;;;;;;7.90;2.00;;;;;;;15.17;47.94;98162.63;690679;28;1248;-90
2024/01/03 01:35:36;;;;;;;5.63;1.73;;;;;;;15.13;47.98;98159.25;691027;28;1480;-92
2024/01/03 01:35:56;;;;;;;7.97;2.08;;;;;;;15.22;47.90;98173.88;691237;28;1189;-90
2024/01/03 01:36:17;;;;;;;7.70;2.10;;;;;;;15.07;47.93;98180.47;691131;28;1179;-89
2024/01/03 01:36:38;;;;;;;6.30;2.15;;;;;;;15.22;47.91;98171.25;691116;28;1963;-91
2024/01/03 01:36:59;;;;;;;6.07;2.08;;;;;;;15.11;47.74;98157.59;688432;28;1628;-89
2024/01/03 01:37:19;;;;;;;6.45;2.15;;;;;;;15.12;47.73;98198.72;696243;28;1233;-90
2024/01/03 01:37:40;;;;;;;5.50;2.17;;;;;;;15.11;47.85;98170.72;696400;28;1276;-89
2024/01/03 01:38:03;;;;;;;6.85;2.13;;;;;;;15.20;47.99;98175.66;688354;28;1186;-90
2024/01/03 01:38:23;;;;;;;8.82;2.30;;;;;;;15.28;48.02;98168.44;690392;28;1942;-91
2024/01/03 01:38:44;;;;;;;9.10;2.33;;;;;;;15.28;47.70;98162.31;689515;28;1201;-90
2024/01/03 01:39:05;;;;;;;5.80;2.30;;;;;;;15.25;47.74;98163.28;688008;28;1317;-90
2024/01/03 01:39:26;;;;;;;5.40;2.20;;;;;;;15.18;47.63;98172.25;690743;28;1027;-88
2024/01/03 01:39:46;;;;;;;7.03;2.17;;;;;;;15.23;47.60;98185.25;690984;28;1212;-90
2024/01/03 01:40:08;;;;;;;7.13;2.30;;;;;;;15.30;47.63;98179.75;695499;28;1556;-91
2024/01/03 01:40:29;;;;;;;7.47;2.10;;;;;;;15.31;47.65;98184.06;698702;28;1228;-90
2024/01/03 01:40:50;;;;;;;9.70;2.00;;;;;;;15.29;47.63;98170.16;693685;28;1330;-91
2024/01/03 01:41:10;;;;;;;8.40;1.70;;;;;;;15.28;47.72;98167.56;689026;28;1541;-90
2024/01/03 01:41:31;;;;;;;8.13;1.75;;;;;;;15.23;47.61;98172.13;693447;28;1162;-89
2024/01/03 01:41:52;;;;;;;6.00;2.00;;;;;;;15.11;47.60;98203.09;693675;28;1253;-88
2024/01/03 01:42:12;;;;;;;6.60;1.97;;;;;;;15.13;47.72;98158.41;690807;28;1216;-90
2024/01/03 01:42:33;;;;;;;7.75;2.30;;;;;;;15.23;47.72;98219.41;693796;28;1146;-91
2024/01/03 01:42:54;;;;;;;7.53;2.20;;;;;;;15.29;47.33;98198.16;691782;28;1586;-90
2024/01/03 01:43:14;;;;;;;9.43;2.30;;;;;;;15.24;47.34;98171.22;690328;28;1297;-91
2024/01/03 01:43:35;;;;;;;9.63;2.15;;;;;;;15.38;47.11;98176.88;693872;28;1295;-91
2024/01/03 01:43:56;;;;;;;8.45;2.03;;;;;;;15.40;47.07;98182.06;693350;28;1257;-90
2024/01/03 01:44:17;;;;;;;5.20;1.85;;;;;;;15.37;47.16;98175.16;690844;28;1483;-91
2024/01/03 01:44:38;;;;;;;4.10;1.80;;;;;;;15.33;47.17;98174.41;687393;28;1211;-89
2024/01/03 01:44:58;;;;;;;6.38;2.05;;;;;;;15.23;47.27;98185.25;690880;28;1462;-90
2024/01/03 01:45:19;;;;;;;6.70;2.17;;;;;;;15.37;47.41;98204.06;690971;28;1445;-88
2024/01/03 01:45:40;;;;;;;7.23;2.10;;;;;;;15.27;47.20;98208.75;685578;28;1169;-89
2024/01/03 01:46:01;;;;;;;4.10;1.75;;;;;;;15.27;47.13;98187.72;688786;28;1480;-91
2024/01/03 01:46:22;;;;;;;5.40;1.70;;;;;;;15.26;47.18;98191.28;693740;28;1165;-91
2024/01/03 01:46:44;;;;;;;7.10;1.90;;;;;;;15.25;46.94;98217.59;696493;28;1326;-90
2024/01/03 01:47:06;;;;;;;8.23;2.15;;;;;;;15.34;46.90;98205.00;696233;28;1650;-90
2024/01/03 01:47:27;;;;;;;6.20;1.88;;;;;;;15.23;47.07;98186.09;691144;28;1273;-89
2024/01/03 01:47:48;;;;;;;3.90;1.67;;;;;;;15.23;47.05;98219.41;691144;28;1153;-90
2024/01/03 01:48:09;;;;;;;2.80;1.40;;;;;;;15.27;46.89;98224.50;691940;28;1532;-89
2024/01/03 01:48:30;;;;;;;7.40;1.52;;;;;;;15.41;47.05;98178.50;690685;28;1216;-89
2024/01/03 01:48:53;;;;;;;9.25;1.83;;;;;;;15.31;46.90;98189.34;688332;28;1280;-88
2024/01/03 01:49:17;;;;;;;6.95;2.13;;;;;;;15.33;46.71;98200.69;689655;28;1493;-88
2024/01/03 01:49:40;;;;;;;6.82;2.00;;;;;;;15.29;47.02;98199.03;685561;28;1224;-87
2024/01/03 01:50:04;;;;;;;7.85;2.17;;;;;;;15.30;46.93;98213.88;688265;28;1353;-89
2024/01/03 01:50:26;;;;;;;7.18;2.20;;;;;;;15.42;46.80;98204.75;691122;28;1149;-90
2024/01/03 01:50:46;;;;;;;9.52;2.30;;;;;;;15.38;46.68;98202.28;693629;28;1241;-87
2024/01/03 01:51:08;;;;;;;7.40;1.90;;;;;;;15.37;46.73;98208.44;696031;28;1511;-89
2024/01/03 01:51:29;;;;;;;8.40;1.98;;;;;;;15.45;46.80;98206.41;693789;28;1294;-88
2024/01/03 01:51:50;;;;;;;4.93;1.70;;;;;;;15.41;46.63;98212.66;691117;28;1261;-89
2024/01/03 01:52:13;;;;;;;4.77;1.70;;;;;;;15.37;46.60;98197.94;696415;28;1208;-89
2024/01/03 01:52:34;;;;;;;6.35;1.70;;;;;;;15.33;46.65;98194.56;691308;28;1281;-90
2024/01/03 01:52:58;;;;;;;8.10;2.15;;;;;;;15.34;46.52;98197.13;692041;28;1289;-88
2024/01/03 01:53:19;;;;;;;5.20;2.10;;;;;;;15.29;46.72;98206.06;696282;28;1223;-89
2024/01/03 01:53:40;;;;;;;9.15;2.05;;;;;;;15.28;46.85;98212.22;696722;28;1174;-89
2024/01/03 01:54:02;;;;;;;10.23;2.00;;;;;;;15.37;46.77;98208.44;692938;28;1497;-89
2024/01/03 01:54:23;;;;;;;11.30;2.00;;;;;;;15.38;46.56;98179.50;696127;28;1281;-90
2024/01/03 01:54:43;;;;;;;8.63;2.08;;;;;;;15.48;46.53;98185.28;693939;28;1003;-90
2024/01/03 01:55:05;;;;;;;5.95;2.05;;;;;;;15.50;46.48;98196.63;690950;28;1242;-91
2024/01/03 01:55:26;;;;;;;5.13;2.10;;;;;;;15.38;46.84;98187.38;691153;28;1101;-89
2024/01/03 01:55:47;;;;;;;5.82;2.20;;;;;;;15.47;46.43;98199.34;693731;28;1681;-90
2024/01/03 01:56:10;;;;;;;5.72;2.10;;;;;;;15.39;46.51;98207.50;692117;28;1552;-91
2024/01/03 01:56:33;;;;;;;5.95;2.00;;;;;;;15.35;46.77;98195.34;691122;28;1264;-89
2024/01/03 01:56:54;;;;;;;4.80;1.90;;;;;;;15.43;46.75;98195.09;685660;28;1969;-91
2024/01/03 01:57:16;;;;;;;4.95;2.03;;;;;;;15.43;46.83;98226.63;695985;28;1253;-88
2024/01/03 01:57:40;;;;;;;6.55;2.17;;;;;;;15.27;47.34;98203.50;688745;28;1181;-89
2024/01/03 01:58:01;;;;;;;6.57;1.90;;;;;;;15.33;47.02;98219.06;690210;28;1653;-90
2024/01/03 01:58:22;;;;;;;6.93;1.90;;;;;;;15.28;47.62;98212.22;688225;28;1159;-92
2024/01/03 01:58:44;;;;;;;4.35;1.83;;;;;;;15.19;47.50;98216.00;688562;28;1262;-89
2024/01/03 01:59:06;;;;;;;3.35;1.90;;;;;;;15.05;47.75;98256.66;691500;28;1528;-89
2024/01/03 01:59:27;;;;;;;5.20;1.90;;;;;;;14.90;48.44;98200.25;696426;28;1199;-91
2024/01/03 01:59:48;;;;;;;5.95;1.90;;;;;;;15.06;48.02;98221.63;690900;28;1280;-90
2024/01/03 02:00:09;;;;;;;11.68;2.33;;;;;;;15.14;47.83;98223.16;689571;28;1564;-89
2024/01/03 02:00:33;;;;;;;10.52;2.47;;;;;;;14.97;47.97;98205.28;688404;28;1160;-90
2024/01/03 02:00:55;;;;;;;10.65;2.30;;;;;;;14.91;48.33;98201.97;688516;28;1217;-91